Time;durP1;ratioP1;P1;durP2;ratioP2;P2;SDS_P1;SDS_P2;PMS_P1;PMS_P2;Temp;Humidity;BMP_temperature;BMP_pressure;BME280_temperature;BME280_humidity;BME280_pressure;Samples;Min_cycle;Max_cycle;Signal;HPM_P1;HPM_P2
2024/04/08 00:01:52;;;;;;;0.95;0.45;;;15.10;99.90;;;;;;4248862;27;20055;-60
2024/04/08 00:03:54;;;;;;;2.10;1.45;;;15.10;99.90;;;;;;4243852;27;20050;-59
2024/04/08 00:05:55;;;;;;;0.70;0.40;;;15.20;99.90;;;;;;4238895;27;20092;-59
2024/04/08 00:07:56;;;;;;;0.40;0.40;;;15.10;99.90;;;;;;4247890;27;20069;-59
2024/04/08 00:09:59;;;;;;;0.40;0.38;;;15.10;99.90;;;;;;4236446;27;20050;-60
2024/04/08 00:12:00;;;;;;;0.50;0.50;;;15.10;99.90;;;;;;4246762;27;20043;-60
2024/04/08 00:14:01;;;;;;;0.40;0.40;;;15.10;99.90;;;;;;4228654;28;20065;-60
2024/04/08 00:16:03;;;;;;;0.82;0.45;;;15.00;99.90;;;;;;4237148;27;20043;-60
2024/04/08 00:18:04;;;;;;;1.27;0.57;;;15.10;99.90;;;;;;4247638;27;20097;-60
2024/04/08 00:20:06;;;;;;;0.47;0.30;;;15.10;99.90;;;;;;4238190;27;20501;-60
2024/04/08 00:22:07;;;;;;;1.00;0.77;;;15.20;99.90;;;;;;4227515;28;20059;-60
2024/04/08 00:24:08;;;;;;;0.90;0.52;;;15.30;99.90;;;;;;4245421;27;20043;-63
2024/04/08 00:26:11;;;;;;;0.88;0.45;;;15.20;99.90;;;;;;4242197;27;20078;-59
2024/04/08 00:28:12;;;;;;;0.73;0.47;;;15.20;99.90;;;;;;4230556;28;20055;-59
2024/04/08 00:30:13;;;;;;;2.28;0.50;;;15.20;99.90;;;;;;4237954;27;20039;-60
2024/04/08 00:32:14;;;;;;;0.70;0.50;;;15.10;99.90;;;;;;4235195;27;20433;-59
2024/04/08 00:34:15;;;;;;;0.32;0.20;;;15.10;99.90;;;;;;4231963;27;20059;-59
2024/04/08 00:36:17;;;;;;;0.82;0.30;;;15.20;99.90;;;;;;4242183;27;20043;-59
2024/04/08 00:38:20;;;;;;;1.75;0.60;;;15.30;99.90;;;;;;4230345;28;20044;-60
2024/04/08 00:40:21;;;;;;;0.90;0.30;;;15.20;99.90;;;;;;4236563;27;20046;-60
2024/04/08 00:42:23;;;;;;;0.38;0.30;;;15.20;99.90;;;;;;4237297;27;20051;-59
2024/04/08 00:44:24;;;;;;;0.63;0.40;;;15.20;99.90;;;;;;4230456;28;20290;-60
2024/04/08 00:46:26;;;;;;;0.30;0.30;;;15.20;99.90;;;;;;4242676;27;20042;-60
2024/04/08 00:48:27;;;;;;;1.33;0.47;;;15.20;99.90;;;;;;4230309;28;20507;-59
2024/04/08 00:50:29;;;;;;;1.00;0.47;;;15.10;99.90;;;;;;4234031;27;20537;-59
2024/04/08 00:52:30;;;;;;;2.55;0.77;;;15.10;99.90;;;;;;4239276;27;20039;-60
2024/04/08 00:54:32;;;;;;;0.50;0.30;;;15.10;99.90;;;;;;4230800;28;20044;-59
2024/04/08 00:56:33;;;;;;;1.63;0.60;;;15.10;99.90;;;;;;4241919;27;20407;-59
2024/04/08 00:58:38;;;;;;;0.40;0.30;;;15.10;99.90;;;;;;4231138;27;20047;-59
2024/04/08 01:00:39;;;;;;;1.30;0.75;;;15.00;99.90;;;;;;4232510;27;20047;-59
2024/04/08 01:02:41;;;;;;;1.13;0.63;;;15.10;99.90;;;;;;4239910;27;20047;-60
2024/04/08 01:04:42;;;;;;;1.85;0.70;;;15.10;99.90;;;;;;4230129;28;20062;-59
2024/04/08 01:06:43;;;;;;;0.80;0.60;;;15.10;99.90;;;;;;4239960;27;20051;-59
2024/04/08 01:08:45;;;;;;;1.80;0.68;;;15.10;99.90;;;;;;4232292;27;20069;-59
2024/04/08 01:10:46;;;;;;;1.45;0.35;;;15.10;99.90;;;;;;4231298;27;20481;-60
2024/04/08 01:12:47;;;;;;;2.25;1.23;;;15.00;99.90;;;;;;4241148;27;20043;-59
2024/04/08 01:14:50;;;;;;;0.55;0.40;;;15.00;99.90;;;;;;4213287;28;20055;-59
2024/04/08 01:16:51;;;;;;;2.47;1.13;;;14.90;99.90;;;;;;4237754;27;20076;-60
2024/04/08 01:18:52;;;;;;;0.75;0.40;;;14.90;99.90;;;;;;4234360;27;20051;-59
2024/04/08 01:20:54;;;;;;;0.75;0.50;;;14.90;99.90;;;;;;4231095;27;20047;-61
2024/04/08 01:23:03;;;;;;;0.93;0.40;;;14.90;99.90;;;;;;4244477;27;20128;-67
2024/04/08 01:25:08;;;;;;;0.98;0.43;;;14.90;99.90;;;;;;4247408;27;20046;-59
2024/04/08 01:27:09;;;;;;;1.33;0.85;;;15.00;99.90;;;;;;4238273;27;20107;-61
2024/04/08 01:29:11;;;;;;;0.50;0.50;;;14.90;99.90;;;;;;4242231;27;20082;-59
2024/04/08 01:31:15;;;;;;;0.40;0.40;;;14.90;99.90;;;;;;4243924;27;20051;-59
2024/04/08 01:33:19;;;;;;;1.08;0.80;;;14.90;99.90;;;;;;4241167;27;20055;-59
2024/04/08 01:35:20;;;;;;;1.45;0.88;;;14.80;99.90;;;;;;4230004;28;20505;-67
2024/04/08 01:37:22;;;;;;;0.77;0.60;;;14.90;99.90;;;;;;4236232;27;20079;-59
2024/04/08 01:39:24;;;;;;;3.53;0.70;;;14.90;99.90;;;;;;4235419;27;20081;-60
2024/04/08 01:41:29;;;;;;;1.92;0.70;;;14.80;99.90;;;;;;4213222;28;20058;-60
2024/04/08 01:43:31;;;;;;;0.77;0.70;;;14.90;99.90;;;;;;4218040;28;20139;-59
2024/04/08 01:45:32;;;;;;;0.95;0.57;;;14.90;99.90;;;;;;4246180;27;20134;-58
2024/04/08 01:47:35;;;;;;;1.45;0.73;;;14.90;99.90;;;;;;4223942;28;20075;-61
2024/04/08 01:49:37;;;;;;;1.92;0.80;;;15.00;99.90;;;;;;4239222;27;20046;-59
2024/04/08 01:51:40;;;;;;;2.00;0.68;;;15.00;99.90;;;;;;4245583;27;20043;-59
2024/04/08 01:53:42;;;;;;;1.17;0.60;;;14.90;99.90;;;;;;4227871;28;20051;-60
2024/04/08 01:55:43;;;;;;;1.65;1.45;;;14.90;99.90;;;;;;4229555;28;20055;-59
2024/04/08 01:57:48;;;;;;;0.77;0.30;;;14.90;99.90;;;;;;4216378;28;20051;-60
2024/04/08 01:59:53;;;;;;;0.50;0.30;;;14.80;99.90;;;;;;4219885;28;20048;-59
2024/04/08 02:01:54;;;;;;;1.05;0.40;;;14.90;99.90;;;;;;4229293;28;20050;-59
2024/04/08 02:03:56;;;;;;;1.02;0.43;;;14.90;99.90;;;;;;4233328;28;20044;-59
2024/04/08 02:05:57;;;;;;;0.80;0.20;;;15.00;99.90;;;;;;4229416;28;20470;-59
2024/04/08 02:07:58;;;;;;;0.47;0.30;;;15.00;99.90;;;;;;4215447;28;20071;-59
2024/04/08 02:10:00;;;;;;;5.22;0.40;;;15.10;99.90;;;;;;4238783;28;20048;-59
2024/04/08 02:12:02;;;;;;;1.60;0.52;;;15.10;99.90;;;;;;4229284;28;20104;-59
2024/04/08 02:14:05;;;;;;;0.25;0.25;;;15.10;99.90;;;;;;4239916;28;20044;-59
2024/04/08 02:16:07;;;;;;;1.10;0.30;;;15.10;99.90;;;;;;4230672;28;20119;-62
2024/04/08 02:18:11;;;;;;;0.47;0.25;;;15.10;99.90;;;;;;4230673;28;20044;-60
2024/04/08 02:20:13;;;;;;;1.17;0.70;;;15.10;99.90;;;;;;4222740;28;20040;-59
2024/04/08 02:22:14;;;;;;;0.32;0.30;;;15.10;99.90;;;;;;4228468;28;20040;-59
2024/04/08 02:24:15;;;;;;;0.90;0.65;;;15.10;99.90;;;;;;4224767;28;20039;-58
2024/04/08 02:26:16;;;;;;;0.40;0.40;;;15.00;99.90;;;;;;4215172;28;20105;-60
2024/04/08 02:28:17;;;;;;;0.20;0.20;;;15.00;99.90;;;;;;4213330;28;20088;-58
2024/04/08 02:30:20;;;;;;;0.17;0.10;;;15.00;99.90;;;;;;4223427;28;20040;-60
2024/04/08 02:32:21;;;;;;;0.68;0.32;;;15.00;99.90;;;;;;4212436;28;20047;-59
2024/04/08 02:34:22;;;;;;;0.40;0.40;;;15.00;99.90;;;;;;4220022;28;20039;-59
2024/04/08 02:36:23;;;;;;;1.33;0.45;;;14.90;99.90;;;;;;4217263;28;20052;-59
2024/04/08 02:38:24;;;;;;;0.20;0.20;;;14.90;99.90;;;;;;4213459;28;20048;-59
2024/04/08 02:40:25;;;;;;;2.30;0.43;;;14.80;99.90;;;;;;4223563;28;20048;-59
2024/04/08 02:42:30;;;;;;;0.65;0.32;;;14.70;99.90;;;;;;4212176;28;20185;-59
2024/04/08 02:44:31;;;;;;;0.20;0.20;;;14.70;99.90;;;;;;4217859;28;20039;-59
2024/04/08 02:46:33;;;;;;;0.20;0.20;;;14.70;99.90;;;;;;4218723;28;20054;-59
2024/04/08 02:48:35;;;;;;;1.83;0.28;;;14.70;99.90;;;;;;4212334;28;20055;-59
2024/04/08 02:50:36;;;;;;;0.63;0.30;;;14.60;99.90;;;;;;4224329;28;20048;-59
2024/04/08 02:52:37;;;;;;;0.30;0.30;;;14.80;99.90;;;;;;4212645;28;20052;-60
2024/04/08 02:54:38;;;;;;;0.25;0.25;;;14.80;99.90;;;;;;4216559;28;20058;-60
2024/04/08 02:56:40;;;;;;;0.68;0.28;;;14.70;99.90;;;;;;4203926;28;20049;-63
2024/04/08 02:58:41;;;;;;;2.10;0.30;;;14.70;99.90;;;;;;4211951;28;20044;-59
2024/04/08 03:00:42;;;;;;;0.50;0.40;;;14.90;99.90;;;;;;4223689;28;20104;-60
2024/04/08 03:02:45;;;;;;;0.68;0.60;;;14.90;99.90;;;;;;4214899;28;20051;-59
2024/04/08 03:04:46;;;;;;;0.52;0.30;;;14.90;99.90;;;;;;4217266;28;20048;-59
2024/04/08 03:06:48;;;;;;;0.90;0.60;;;14.90;99.90;;;;;;4225179;28;20047;-60
2024/04/08 03:08:49;;;;;;;1.30;0.88;;;14.90;99.90;;;;;;4214947;28;20040;-59
2024/04/08 03:10:57;;;;;;;0.50;0.50;;;14.90;99.90;;;;;;4224830;28;20040;-60
2024/04/08 03:12:58;;;;;;;1.15;0.40;;;14.90;99.90;;;;;;4216325;28;20085;-59
2024/04/08 03:14:59;;;;;;;0.85;0.80;;;14.80;99.90;;;;;;4216293;28;20047;-59
2024/04/08 03:17:00;;;;;;;0.98;0.60;;;14.90;99.90;;;;;;4220554;28;20473;-59
2024/04/08 03:19:03;;;;;;;0.75;0.35;;;14.90;99.90;;;;;;4214807;28;20044;-59
2024/04/08 03:21:04;;;;;;;1.52;0.35;;;14.90;99.90;;;;;;4222435;28;20044;-58
2024/04/08 03:23:05;;;;;;;0.50;0.30;;;15.00;99.90;;;;;;4228088;28;20059;-60
2024/04/08 03:25:07;;;;;;;0.85;0.70;;;15.00;99.90;;;;;;4229646;28;20569;-59
2024/04/08 03:27:08;;;;;;;0.55;0.40;;;15.00;99.90;;;;;;4225967;28;20052;-64
2024/04/08 03:29:09;;;;;;;1.30;0.50;;;15.00;99.90;;;;;;4214899;28;20044;-59
2024/04/08 03:31:12;;;;;;;0.50;0.40;;;15.00;99.90;;;;;;4221483;28;20042;-62
2024/04/08 03:33:13;;;;;;;0.55;0.55;;;15.10;99.90;;;;;;4220251;28;20071;-58
2024/04/08 03:35:15;;;;;;;0.82;0.50;;;15.00;99.90;;;;;;4216110;28;20401;-60
2024/04/08 03:37:16;;;;;;;1.00;0.60;;;15.10;99.90;;;;;;4226051;28;20051;-58
2024/04/08 03:39:18;;;;;;;1.48;1.02;;;15.10;99.90;;;;;;4214578;28;20040;-60
2024/04/08 03:41:19;;;;;;;6.20;0.60;;;15.10;99.90;;;;;;4219259;28;20052;-59
2024/04/08 03:43:20;;;;;;;0.40;0.40;;;15.10;99.90;;;;;;4221835;28;20394;-58
2024/04/08 03:45:21;;;;;;;0.88;0.73;;;15.10;99.90;;;;;;4214666;28;20048;-60
2024/04/08 03:47:22;;;;;;;0.75;0.63;;;15.10;99.90;;;;;;4227213;28;20386;-60
2024/04/08 03:49:23;;;;;;;1.35;0.68;;;15.00;99.90;;;;;;4214521;28;20043;-59
2024/04/08 03:51:26;;;;;;;6.97;1.73;;;15.00;99.90;;;;;;4217240;28;20036;-62
2024/04/08 03:53:27;;;;;;;1.25;0.80;;;15.00;99.90;;;;;;4223846;28;20101;-63
2024/04/08 03:55:29;;;;;;;1.00;0.77;;;14.90;99.90;;;;;;4214418;28;20101;-59
2024/04/08 03:57:30;;;;;;;2.70;0.73;;;14.90;99.90;;;;;;4225264;28;20432;-59
2024/04/08 03:59:32;;;;;;;2.28;1.27;;;15.00;99.90;;;;;;4215961;28;20048;-58
2024/04/08 04:01:33;;;;;;;0.60;0.50;;;15.00;99.90;;;;;;4215687;28;20480;-59
2024/04/08 04:03:34;;;;;;;3.13;1.02;;;15.00;99.90;;;;;;4225606;28;20066;-60
2024/04/08 04:05:35;;;;;;;0.50;0.50;;;14.90;99.90;;;;;;4214435;28;20047;-59
2024/04/08 04:07:38;;;;;;;1.42;0.47;;;14.90;99.90;;;;;;4223056;28;20051;-58
2024/04/08 04:09:39;;;;;;;1.50;0.55;;;14.80;99.90;;;;;;4217286;28;20454;-62
2024/04/08 04:11:40;;;;;;;0.47;0.40;;;14.80;99.90;;;;;;4215217;28;20429;-59
2024/04/08 04:13:41;;;;;;;1.05;0.63;;;14.70;99.90;;;;;;4224708;28;20556;-58
2024/04/08 04:15:43;;;;;;;1.60;0.80;;;14.70;99.90;;;;;;4214167;28;20495;-62
2024/04/08 04:17:44;;;;;;;1.75;0.60;;;14.80;99.90;;;;;;4221098;28;20047;-59
2024/04/08 04:19:45;;;;;;;0.55;0.45;;;14.70;99.90;;;;;;4219735;28;20044;-61
2024/04/08 04:21:47;;;;;;;0.43;0.38;;;14.70;99.90;;;;;;4215197;28;20055;-58
2024/04/08 04:23:49;;;;;;;0.68;0.68;;;14.80;99.90;;;;;;4230915;28;20401;-59
2024/04/08 04:25:57;;;;;;;3.08;0.95;;;14.80;99.90;;;;;;4230490;28;20055;-59
2024/04/08 04:28:00;;;;;;;0.93;0.70;;;14.80;99.90;;;;;;4224035;28;20047;-59
2024/04/08 04:30:01;;;;;;;1.60;0.63;;;14.80;99.90;;;;;;4224411;28;20044;-58
2024/04/08 04:32:03;;;;;;;0.82;0.50;;;14.80;99.90;;;;;;4229488;28;20293;-59
2024/04/08 04:34:04;;;;;;;1.02;0.70;;;14.90;99.90;;;;;;4218728;28;20059;-58
2024/04/08 04:36:05;;;;;;;0.93;0.82;;;14.90;99.90;;;;;;4230660;28;20050;-59
2024/04/08 04:38:06;;;;;;;1.20;0.60;;;14.80;99.90;;;;;;4225723;28;20040;-59
2024/04/08 04:40:10;;;;;;;0.73;0.60;;;14.70;99.90;;;;;;4221869;28;20505;-59
2024/04/08 04:42:12;;;;;;;2.15;1.00;;;14.80;99.90;;;;;;4230639;28;20055;-58
2024/04/08 04:44:13;;;;;;;1.58;0.65;;;14.70;99.90;;;;;;4217766;28;20056;-59
2024/04/08 04:46:14;;;;;;;2.20;0.82;;;14.70;99.90;;;;;;4230165;28;20048;-59
2024/04/08 04:48:15;;;;;;;1.08;0.57;;;14.70;99.90;;;;;;4227382;28;20412;-59
2024/04/08 04:50:16;;;;;;;2.35;1.48;;;14.70;99.90;;;;;;4220337;28;20043;-59
2024/04/08 04:52:18;;;;;;;1.10;0.43;;;14.80;99.90;;;;;;4230406;28;20040;-59
2024/04/08 04:54:19;;;;;;;0.55;0.50;;;14.80;99.90;;;;;;4219609;28;20535;-58
2024/04/08 04:56:21;;;;;;;1.23;0.82;;;14.80;99.90;;;;;;4227839;28;20048;-59
2024/04/08 04:58:23;;;;;;;1.38;1.02;;;14.70;99.90;;;;;;4228357;28;20062;-59
2024/04/08 05:00:26;;;;;;;0.50;0.50;;;14.60;99.90;;;;;;4218517;28;20073;-62
2024/04/08 05:02:28;;;;;;;1.13;0.80;;;14.60;99.90;;;;;;4230262;28;20043;-59
2024/04/08 05:04:29;;;;;;;0.50;0.40;;;14.60;99.90;;;;;;4221259;28;20040;-59
2024/04/08 05:06:30;;;;;;;6.50;1.90;;;14.50;99.90;;;;;;4226462;28;20052;-59
2024/04/08 05:08:32;;;;;;;1.10;1.00;;;14.50;99.90;;;;;;4228000;28;20051;-59
2024/04/08 05:10:33;;;;;;;0.93;0.85;;;14.50;99.90;;;;;;4201587;28;20059;-58
2024/04/08 05:12:36;;;;;;;0.80;0.50;;;14.50;99.90;;;;;;4230053;28;20039;-59
2024/04/08 05:14:37;;;;;;;0.52;0.50;;;14.50;99.90;;;;;;4222753;28;20520;-60
2024/04/08 05:16:38;;;;;;;2.33;0.68;;;14.40;99.90;;;;;;4224598;28;20051;-60
2024/04/08 05:18:39;;;;;;;0.75;0.52;;;14.50;99.90;;;;;;4228842;28;20055;-59
2024/04/08 05:20:40;;;;;;;1.25;0.98;;;14.50;99.90;;;;;;4218862;28;20048;-61
2024/04/08 05:22:46;;;;;;;0.85;0.60;;;14.50;99.90;;;;;;4229632;28;20055;-60
2024/04/08 05:24:47;;;;;;;1.38;1.00;;;14.60;99.90;;;;;;4225277;28;20092;-60
2024/04/08 05:26:48;;;;;;;0.80;0.60;;;14.60;99.90;;;;;;4219917;28;20048;-59
2024/04/08 05:28:51;;;;;;;0.82;0.40;;;14.50;99.90;;;;;;4213038;28;20074;-59
2024/04/08 05:30:52;;;;;;;1.95;1.75;;;14.60;99.90;;;;;;4218056;28;20044;-60
2024/04/08 05:32:54;;;;;;;1.35;0.60;;;14.70;99.90;;;;;;4229910;28;20048;-58
2024/04/08 05:34:55;;;;;;;1.13;0.70;;;14.60;99.90;;;;;;4208644;28;20478;-59
2024/04/08 05:36:56;;;;;;;1.67;1.17;;;14.70;99.90;;;;;;4219856;28;20505;-59
2024/04/08 05:38:57;;;;;;;1.30;0.68;;;14.70;99.90;;;;;;4229564;28;20094;-59
2024/04/08 05:41:00;;;;;;;3.97;0.77;;;14.70;99.90;;;;;;4218182;28;20097;-60
2024/04/08 05:43:02;;;;;;;0.40;0.28;;;14.70;99.90;;;;;;4228435;28;20074;-59
2024/04/08 05:45:05;;;;;;;0.50;0.38;;;14.80;99.90;;;;;;4227279;28;20058;-61
2024/04/08 05:47:07;;;;;;;0.70;0.40;;;14.80;99.90;;;;;;4219050;28;20505;-58
2024/04/08 05:49:09;;;;;;;0.60;0.40;;;14.90;99.90;;;;;;4212655;28;20051;-58
2024/04/08 05:51:10;;;;;;;1.83;0.52;;;14.80;99.90;;;;;;4219127;28;20527;-58
2024/04/08 05:53:11;;;;;;;1.48;0.65;;;14.90;99.90;;;;;;4226695;28;20071;-59
2024/04/08 05:55:12;;;;;;;2.83;0.80;;;15.00;99.90;;;;;;4228281;28;20455;-63
2024/04/08 05:57:14;;;;;;;1.30;0.70;;;15.00;99.90;;;;;;4217943;28;20055;-59
2024/04/08 05:59:15;;;;;;;1.48;0.55;;;15.00;99.90;;;;;;4229277;28;20044;-58
2024/04/08 06:01:17;;;;;;;0.75;0.75;;;15.00;99.90;;;;;;4221311;28;20509;-58
2024/04/08 06:03:18;;;;;;;0.50;0.45;;;15.10;99.90;;;;;;4224741;28;20489;-59
2024/04/08 06:05:21;;;;;;;1.48;0.98;;;15.10;99.90;;;;;;4227904;28;20382;-59
2024/04/08 06:07:22;;;;;;;2.35;0.80;;;15.10;99.90;;;;;;4217386;28;20054;-59
2024/04/08 06:09:23;;;;;;;0.90;0.65;;;15.00;99.90;;;;;;4229469;28;20677;-59
2024/04/08 06:11:24;;;;;;;0.75;0.60;;;14.90;99.90;;;;;;4222938;28;20059;-61
2024/04/08 06:13:27;;;;;;;0.77;0.60;;;14.90;99.90;;;;;;4222782;28;20044;-59
2024/04/08 06:15:31;;;;;;;2.00;1.65;;;15.00;99.90;;;;;;4228972;28;20047;-60
2024/04/08 06:17:34;;;;;;;1.90;0.75;;;15.10;99.90;;;;;;4217640;28;20078;-60
2024/04/08 06:19:35;;;;;;;0.68;0.60;;;15.10;99.90;;;;;;4229534;28;20139;-59
2024/04/08 06:21:36;;;;;;;2.22;0.88;;;15.20;99.90;;;;;;4223824;28;20040;-56
2024/04/08 06:23:37;;;;;;;7.43;0.65;;;15.20;99.90;;;;;;4243893;28;20093;-57
2024/04/08 06:25:38;;;;;;;3.63;1.67;;;15.30;99.90;;;;;;4246578;28;20419;-57
2024/04/08 06:27:39;;;;;;;0.95;0.73;;;15.30;99.90;;;;;;4233352;28;20055;-57
2024/04/08 06:29:41;;;;;;;2.22;1.10;;;15.40;99.90;;;;;;4246204;28;20070;-58
2024/04/08 06:31:42;;;;;;;0.77;0.57;;;15.40;99.90;;;;;;4241949;28;20074;-57
2024/04/08 06:33:44;;;;;;;11.45;2.42;;;15.50;99.90;;;;;;4239127;28;20052;-58
2024/04/08 06:35:45;;;;;;;1.13;0.60;;;15.40;99.90;;;;;;4229206;28;20047;-66
2024/04/08 06:37:47;;;;;;;1.55;0.88;;;15.30;99.90;;;;;;4242776;27;20070;-56
2024/04/08 06:39:48;;;;;;;1.00;0.60;;;15.30;99.90;;;;;;4235379;27;20044;-56
2024/04/08 06:41:49;;;;;;;0.60;0.50;;;15.40;99.90;;;;;;4233880;27;20097;-55
2024/04/08 06:43:50;;;;;;;2.30;1.48;;;15.30;99.90;;;;;;4244011;27;20378;-61
2024/04/08 06:45:55;;;;;;;0.88;0.63;;;15.40;99.90;;;;;;4232399;28;20144;-57
2024/04/08 06:47:56;;;;;;;0.73;0.73;;;15.50;99.90;;;;;;4240955;27;20050;-56
2024/04/08 06:49:58;;;;;;;1.40;0.80;;;15.60;99.90;;;;;;4235937;27;20047;-56
2024/04/08 06:51:59;;;;;;;1.27;0.95;;;15.70;99.90;;;;;;4233817;27;20050;-56
2024/04/08 06:54:00;;;;;;;1.38;0.82;;;15.80;99.90;;;;;;4243632;27;20039;-58
2024/04/08 06:56:04;;;;;;;2.78;0.88;;;15.80;99.90;;;;;;4232326;28;20054;-61
2024/04/08 06:58:09;;;;;;;1.23;0.90;;;15.90;99.90;;;;;;4239316;27;20039;-56
2024/04/08 07:00:11;;;;;;;4.72;0.63;;;15.80;99.90;;;;;;4237100;27;20477;-55
2024/04/08 07:02:12;;;;;;;2.00;0.88;;;15.90;99.90;;;;;;4233484;27;20052;-55
2024/04/08 07:04:14;;;;;;;3.65;1.00;;;15.90;99.90;;;;;;4243080;27;20047;-55
2024/04/08 07:06:18;;;;;;;1.05;0.60;;;16.00;99.90;;;;;;4232280;28;20108;-57
2024/04/08 07:08:21;;;;;;;2.25;0.82;;;16.10;99.90;;;;;;4238163;27;20155;-56
2024/04/08 07:10:24;;;;;;;1.55;0.73;;;16.10;99.90;;;;;;4221444;28;20482;-57
2024/04/08 07:12:25;;;;;;;2.58;1.92;;;16.10;99.90;;;;;;4232973;27;20045;-56
2024/04/08 07:14:27;;;;;;;1.25;0.88;;;16.10;99.90;;;;;;4243323;27;20054;-55
2024/04/08 07:16:28;;;;;;;0.57;0.52;;;16.10;99.90;;;;;;4215066;28;20118;-54
2024/04/08 07:18:29;;;;;;;0.85;0.68;;;16.10;99.90;;;;;;4235616;27;20429;-59
2024/04/08 07:20:32;;;;;;;0.73;0.70;;;16.00;99.90;;;;;;4240785;27;20077;-57
2024/04/08 07:22:34;;;;;;;1.58;0.82;;;16.20;99.90;;;;;;4248440;27;20055;-57
2024/04/08 07:24:35;;;;;;;1.00;0.65;;;16.20;99.90;;;;;;4235745;27;20441;-58
2024/04/08 07:26:37;;;;;;;2.63;0.50;;;16.20;99.90;;;;;;4231786;28;20051;-62
2024/04/08 07:28:40;;;;;;;0.82;0.55;;;16.20;99.90;;;;;;4234522;27;20040;-57
2024/04/08 07:30:41;;;;;;;4.80;1.40;;;16.30;99.90;;;;;;4241538;27;20043;-58
2024/04/08 07:32:42;;;;;;;1.35;0.55;;;16.30;99.90;;;;;;4231409;28;20039;-58
2024/04/08 07:34:43;;;;;;;1.00;0.90;;;16.20;99.90;;;;;;4242419;27;20443;-58
2024/04/08 07:36:45;;;;;;;0.82;0.60;;;16.20;99.90;;;;;;4233402;27;20043;-57
2024/04/08 07:38:47;;;;;;;0.60;0.52;;;16.30;99.90;;;;;;4232572;27;20066;-58
2024/04/08 07:40:48;;;;;;;1.13;0.50;;;16.20;99.90;;;;;;4237149;27;20088;-58
2024/04/08 07:42:49;;;;;;;0.60;0.60;;;16.20;99.90;;;;;;4248929;27;20043;-58
2024/04/08 07:44:51;;;;;;;0.65;0.40;;;16.30;99.90;;;;;;4239455;27;20474;-59
2024/04/08 07:46:54;;;;;;;2.40;1.30;;;16.40;99.90;;;;;;4245256;27;20058;-58
2024/04/08 07:48:55;;;;;;;1.08;0.70;;;16.30;99.90;;;;;;4245091;27;20039;-58
2024/04/08 07:50:56;;;;;;;0.82;0.38;;;16.20;99.90;;;;;;4237225;27;20160;-59
2024/04/08 07:52:57;;;;;;;1.48;0.40;;;16.30;99.90;;;;;;4248535;27;20043;-57
2024/04/08 07:55:00;;;;;;;1.05;0.40;;;16.30;99.90;;;;;;4241044;27;20051;-58
2024/04/08 07:57:01;;;;;;;0.40;0.40;;;16.20;99.90;;;;;;4243257;27;20107;-59
2024/04/08 07:59:02;;;;;;;1.10;0.40;;;16.20;99.90;;;;;;4246783;27;20043;-58
2024/04/08 08:01:03;;;;;;;3.83;1.33;;;16.30;99.90;;;;;;4236727;27;20508;-58
2024/04/08 08:03:05;;;;;;;2.05;0.60;;;16.30;99.90;;;;;;4247910;27;20047;-58
2024/04/08 08:05:06;;;;;;;9.07;0.85;;;16.30;99.90;;;;;;4242615;27;20085;-58
2024/04/08 08:07:07;;;;;;;0.63;0.40;;;16.30;99.90;;;;;;4240472;27;20099;-58
2024/04/08 08:09:08;;;;;;;3.47;0.73;;;16.30;99.90;;;;;;4248119;27;20039;-58
2024/04/08 08:11:11;;;;;;;0.95;0.30;;;16.20;99.90;;;;;;4226530;28;20051;-58
2024/04/08 08:13:13;;;;;;;1.52;0.80;;;16.30;99.90;;;;;;4231017;28;20542;-58
2024/04/08 08:15:15;;;;;;;0.25;0.20;;;16.20;99.90;;;;;;4234260;27;20036;-59
2024/04/08 08:17:16;;;;;;;0.68;0.30;;;16.30;99.90;;;;;;4239617;27;20049;-60
2024/04/08 08:19:17;;;;;;;0.57;0.30;;;16.40;99.90;;;;;;4230871;28;20047;-58
2024/04/08 08:21:19;;;;;;;0.68;0.43;;;16.30;99.90;;;;;;4224739;28;20130;-58
2024/04/08 08:23:20;;;;;;;0.65;0.52;;;16.30;99.90;;;;;;4231660;27;20052;-58
2024/04/08 08:25:23;;;;;;;0.73;0.28;;;16.40;99.90;;;;;;4226598;28;20036;-59
2024/04/08 08:27:25;;;;;;;0.30;0.30;;;16.30;99.90;;;;;;4224826;28;20070;-58
2024/04/08 08:29:27;;;;;;;1.45;0.30;;;16.40;99.90;;;;;;4214022;28;20048;-58
2024/04/08 08:31:28;;;;;;;0.82;0.50;;;16.30;99.90;;;;;;4222996;28;20093;-56
2024/04/08 08:33:29;;;;;;;0.80;0.63;;;16.40;99.90;;;;;;4216807;28;20044;-56
2024/04/08 08:35:31;;;;;;;5.22;0.28;;;16.40;99.90;;;;;;4215489;28;20048;-56
2024/04/08 08:37:32;;;;;;;0.40;0.20;;;16.30;99.70;;;;;;4218211;28;20461;-56
2024/04/08 08:39:37;;;;;;;2.85;0.63;;;16.30;99.90;;;;;;4230796;28;20055;-61
2024/04/08 08:41:41;;;;;;;0.45;0.20;;;16.30;99.70;;;;;;4222720;28;20048;-56
2024/04/08 08:43:46;;;;;;;0.30;0.20;;;16.20;99.90;;;;;;4226900;28;20412;-63
2024/04/08 08:45:47;;;;;;;0.25;0.25;;;16.30;99.90;;;;;;4229010;28;20036;-56
2024/04/08 08:47:49;;;;;;;0.55;0.40;;;16.20;99.90;;;;;;4202802;28;20051;-62
2024/04/08 08:49:53;;;;;;;0.63;0.30;;;16.10;99.90;;;;;;4231131;28;20077;-59
2024/04/08 08:51:54;;;;;;;0.27;0.27;;;16.10;99.90;;;;;;4223566;28;20051;-57
2024/04/08 08:53:56;;;;;;;0.47;0.20;;;16.00;99.90;;;;;;4225611;28;20051;-58
2024/04/08 08:55:58;;;;;;;1.88;0.20;;;16.00;99.90;;;;;;4229695;28;20581;-59
2024/04/08 08:58:00;;;;;;;1.65;0.73;;;16.10;99.90;;;;;;4219304;28;20044;-59
2024/04/08 09:00:06;;;;;;;1.65;0.65;;;16.20;99.90;;;;;;4230385;28;20047;-59
2024/04/08 09:02:11;;;;;;;0.63;0.30;;;16.20;99.90;;;;;;4207300;28;20185;-60
2024/04/08 09:04:14;;;;;;;0.40;0.40;;;16.30;99.90;;;;;;4225106;28;20121;-57
2024/04/08 09:06:15;;;;;;;0.68;0.20;;;16.30;99.90;;;;;;4228951;28;20477;-58
2024/04/08 09:08:16;;;;;;;0.30;0.20;;;16.40;99.90;;;;;;4218604;28;20048;-57
2024/04/08 09:10:18;;;;;;;0.60;0.45;;;16.50;99.90;;;;;;4230375;28;20051;-58
2024/04/08 09:12:20;;;;;;;0.80;0.10;;;16.50;99.90;;;;;;4225056;28;20085;-57
2024/04/08 09:14:22;;;;;;;0.85;0.30;;;16.40;99.90;;;;;;4222378;28;20479;-65
2024/04/08 09:16:25;;;;;;;1.50;0.93;;;16.40;99.90;;;;;;4229964;28;20480;-58
2024/04/08 09:18:26;;;;;;;0.30;0.20;;;16.30;99.90;;;;;;4208808;28;20414;-57
2024/04/08 09:20:27;;;;;;;2.42;0.63;;;16.30;99.90;;;;;;4213034;28;20080;-58
2024/04/08 09:22:29;;;;;;;2.60;0.50;;;16.30;99.90;;;;;;4219890;28;20052;-58
2024/04/08 09:24:30;;;;;;;1.23;0.68;;;16.30;99.90;;;;;;4221929;28;20055;-58
2024/04/08 09:26:32;;;;;;;0.55;0.35;;;16.40;99.90;;;;;;4213560;28;20048;-57
2024/04/08 09:28:33;;;;;;;0.55;0.30;;;16.40;99.90;;;;;;4223994;28;20100;-57
2024/04/08 09:30:35;;;;;;;0.63;0.52;;;16.40;99.90;;;;;;4214134;28;20055;-55
2024/04/08 09:32:38;;;;;;;1.08;0.40;;;16.30;99.90;;;;;;4214214;28;20063;-55
2024/04/08 09:34:40;;;;;;;1.50;0.50;;;16.10;99.90;;;;;;4223720;28;20051;-55
2024/04/08 09:36:42;;;;;;;0.75;0.28;;;16.00;99.90;;;;;;4213050;28;20048;-55
2024/04/08 09:38:46;;;;;;;2.95;0.77;;;16.10;99.90;;;;;;4222555;28;20048;-55
2024/04/08 09:40:49;;;;;;;0.80;0.35;;;16.10;99.90;;;;;;4215249;28;20048;-55
2024/04/08 09:42:51;;;;;;;0.43;0.35;;;16.20;99.90;;;;;;4214263;28;20040;-56
2024/04/08 09:44:53;;;;;;;0.98;0.30;;;16.20;99.90;;;;;;4224372;28;20044;-58
2024/04/08 09:46:54;;;;;;;0.28;0.28;;;16.20;99.90;;;;;;4213488;28;20063;-55
2024/04/08 09:48:58;;;;;;;0.22;0.20;;;16.20;99.90;;;;;;4204382;28;20055;-57
2024/04/08 09:51:00;;;;;;;1.17;0.50;;;16.10;99.90;;;;;;4216815;28;20443;-54
2024/04/08 09:53:02;;;;;;;1.08;0.45;;;16.20;99.90;;;;;;4214269;28;20108;-56
2024/04/08 09:55:05;;;;;;;0.40;0.30;;;16.20;99.90;;;;;;4224254;28;20393;-55
2024/04/08 09:57:08;;;;;;;9.20;0.52;;;16.30;99.90;;;;;;4213339;28;20063;-55
2024/04/08 09:59:17;;;;;;;0.45;0.35;;;16.40;99.90;;;;;;4219731;28;20050;-56
2024/04/08 10:01:19;;;;;;;2.33;0.82;;;16.60;99.90;;;;;;4216761;28;20040;-56
2024/04/08 10:03:24;;;;;;;1.20;0.60;;;16.90;99.90;;;;;;4214148;28;20136;-56
2024/04/08 10:05:27;;;;;;;0.22;0.22;;;17.10;99.90;;;;;;4223829;28;20047;-59
2024/04/08 10:07:29;;;;;;;0.52;0.20;;;17.30;99.90;;;;;;4195720;28;20041;-60
2024/04/08 10:09:30;;;;;;;1.63;0.38;;;17.40;99.90;;;;;;4219950;28;20044;-59
2024/04/08 10:11:32;;;;;;;0.85;0.17;;;17.50;99.90;;;;;;4218277;28;20054;-56
2024/04/08 10:13:43;;;;;;;1.63;1.08;;;17.50;99.90;;;;;;4216757;28;20084;-56
2024/04/08 10:15:44;;;;;;;0.55;0.28;;;17.60;99.90;;;;;;4227453;28;20043;-56
2024/04/08 10:17:50;;;;;;;0.17;0.17;;;17.70;99.90;;;;;;4215918;28;20044;-56
2024/04/08 10:19:52;;;;;;;1.85;0.57;;;17.70;99.90;;;;;;4223263;28;20051;-56
2024/04/08 10:21:59;;;;;;;0.90;0.45;;;17.80;99.90;;;;;;4221566;28;20210;-57
2024/04/08 10:24:01;;;;;;;0.90;0.70;;;17.80;99.90;;;;;;4230546;28;20463;-57
2024/04/08 10:26:02;;;;;;;0.70;0.30;;;17.80;99.90;;;;;;4226999;28;20044;-56
2024/04/08 10:28:06;;;;;;;3.63;0.75;;;17.90;99.60;;;;;;4215709;28;20044;-61
2024/04/08 10:30:15;;;;;;;1.10;0.80;;;17.90;99.70;;;;;;4222474;28;20047;-56
2024/04/08 10:32:16;;;;;;;1.30;0.32;;;18.00;99.70;;;;;;4220246;28;20128;-57
2024/04/08 10:34:19;;;;;;;0.47;0.30;;;18.00;99.40;;;;;;4216664;28;20048;-57
2024/04/08 10:36:21;;;;;;;0.20;0.20;;;17.90;99.30;;;;;;4227002;28;20401;-57